Friday, December 14, 2018, 6:56 PM EST
Back to Local

KSWF, Newburgh / Stewart

Location: New Windsor, NY, United States Lat: 41.5
Local Time: 6:56 PM EST (23:56 GMT) Lon: -74.1
Time Zone: US/Eastern Elev: 492 ft

Show me the last for .
Show Decoded

2018-12-14 17:45 METAR KSWF 142245Z 00000KT 10SM OVC011 04/04 A3034 =
2018-12-14 16:45 METAR KSWF 142145Z 00000KT 10SM OVC012 04/04 A3035 =
2018-12-14 15:45 METAR KSWF 142045Z 00000KT 7SM OVC014 07/05 A3034 =
2018-12-14 14:45 METAR KSWF 141945Z VRB05KT 7SM OVC016 06/05 A3038 =
2018-12-14 12:45 METAR KSWF 141745Z 20006KT 10SM BKN018 OVC020 06/04 A3038 =
2018-12-14 11:45 METAR KSWF 141645Z 00000KT 10SM BKN018 OVC025 06/04 A3040 RMK PRESFR =
2018-12-14 10:45 METAR KSWF 141545Z 00000KT 10SM BKN015 OVC030 03/03 A3046 =
2018-12-14 09:45 METAR KSWF 141445Z 00000KT 10SM SCT015 OVC030 04/03 A3048 =
2018-12-14 08:45 METAR KSWF 141345Z 00000KT 10SM SCT015 OVC030 02/02 A3049 =
2018-12-14 07:45 METAR KSWF 141245Z 00000KT 10SM BKN014 OVC030 01/01 A3047 =
2018-12-14 06:45 METAR KSWF 141145Z 00000KT 10SM BKN030 01/01 A3046 =
2018-12-14 06:15 METAR KSWF 141115Z 00000KT 7SM BKN012 OVC030 01/01 A3046 =
2018-12-14 04:45 METAR KSWF 140945Z 00000KT 5SM BR OVC008 00/00 A3046 =
2018-12-14 03:45 METAR KSWF 140845Z 00000KT 5SM BR OVC008 00/00 A3047 =
2018-12-14 02:45 METAR KSWF 140745Z 00000KT 4SM BR OVC006 M01/M01 A3048 =
2018-12-14 01:45 METAR KSWF 140645Z 00000KT 5SM BR OVC006 M01/M01 A3048 =
2018-12-14 00:45 METAR KSWF 140545Z 00000KT 5SM BR OVC006 M01/M01 A3049 =
2018-12-13 23:45 METAR KSWF 140445Z 00000KT 5SM BR OVC006 M01/M01 A3050 =
2018-12-13 21:45 METAR KSWF 140245Z 00000KT 2SM BR OVC006 M02/M02 A3049 =
2018-12-13 20:45 METAR KSWF 140145Z 00000KT 2SM BR OVC009 M02/M02 A3048 =
2018-12-13 19:45 METAR KSWF 140045Z 00000KT 2SM BR OVC009 M02/M02 A3049 =

Support USWX by starting your Amazon purchase here.